Time;durP1;ratioP1;P1;durP2;ratioP2;P2;SDS_P1;SDS_P2;PMS_P1;PMS_P2;Temp;Humidity;BMP_temperature;BMP_pressure;BME280_temperature;BME280_humidity;BME280_pressure;Samples;Min_cycle;Max_cycle;Signal;HPM_P1;HPM_P2
2021/05/22 00:00:46;;;;;;;0.50;0.37;;;;;;;11.75;61.73;99079.59;5072082;28;20194;-74
2021/05/22 00:03:12;;;;;;;0.40;0.10;;;;;;;11.82;60.92;99073.50;5072081;28;20185;-73
2021/05/22 00:05:37;;;;;;;0.20;0.20;;;;;;;11.79;61.50;99069.56;5071977;28;20625;-74
2021/05/22 00:08:03;;;;;;;0.57;0.40;;;;;;;11.79;60.93;99061.34;5070602;28;20197;-74
2021/05/22 00:10:28;;;;;;;0.30;0.30;;;;;;;11.77;61.81;99076.50;5072238;28;20171;-74
2021/05/22 00:12:53;;;;;;;0.13;0.10;;;;;;;11.76;61.64;99083.13;5071882;28;20215;-73
2021/05/22 00:15:19;;;;;;;3.20;0.27;;;;;;;11.72;61.01;99080.31;5071923;28;20197;-74
2021/05/22 00:17:45;;;;;;;1.03;0.50;;;;;;;11.72;62.25;99074.03;5071549;28;20588;-74
2021/05/22 00:20:11;;;;;;;0.30;0.30;;;;;;;11.77;61.38;99068.28;5071754;28;20171;-73
2021/05/22 00:22:37;;;;;;;1.80;0.53;;;;;;;11.80;61.46;99075.81;5071520;28;20578;-74
2021/05/22 00:25:05;;;;;;;0.30;0.30;;;;;;;11.81;61.79;99077.41;5071644;28;20174;-74
2021/05/22 00:27:31;;;;;;;2.37;1.90;;;;;;;11.72;62.07;99076.78;5071222;28;20175;-74
2021/05/22 00:29:56;;;;;;;0.10;0.10;;;;;;;11.67;62.50;99077.81;5071472;28;20749;-74
2021/05/22 00:32:21;;;;;;;0.10;0.10;;;;;;;11.72;62.21;99080.31;5070187;28;20178;-74
2021/05/22 00:34:47;;;;;;;0.10;0.10;;;;;;;11.71;62.55;99083.38;5071476;28;20198;-75
2021/05/22 00:37:12;;;;;;;1.00;0.30;;;;;;;11.67;63.18;99082.47;5071164;28;20686;-74
2021/05/22 00:39:37;;;;;;;0.20;0.10;;;;;;;11.61;63.38;99073.75;5071277;28;20171;-74
2021/05/22 00:42:04;;;;;;;0.57;0.40;;;;;;;11.65;63.21;99071.91;5071383;28;20189;-74
2021/05/22 00:44:31;;;;;;;1.90;0.40;;;;;;;11.52;63.59;99075.84;5070014;28;20228;-74
2021/05/22 00:46:58;;;;;;;2.10;0.30;;;;;;;11.64;63.38;99075.78;5071145;28;20176;-74
2021/05/22 00:49:24;;;;;;;0.70;0.30;;;;;;;11.59;63.32;99081.53;5071010;28;20257;-73
2021/05/22 00:51:49;;;;;;;0.10;0.10;;;;;;;11.49;63.87;99077.34;5071239;28;20171;-73
2021/05/22 00:54:17;;;;;;;0.60;0.37;;;;;;;11.47;63.83;99084.31;5069818;28;20178;-73
2021/05/22 00:56:42;;;;;;;0.50;0.50;;;;;;;11.49;63.71;99073.81;5070972;28;20557;-74
2021/05/22 00:59:14;;;;;;;0.80;0.40;;;;;;;11.41;64.05;99074.78;5070904;28;20186;-74
2021/05/22 01:01:40;;;;;;;0.17;0.10;;;;;;;11.40;64.39;99070.44;5071122;28;20617;-74
2021/05/22 01:04:05;;;;;;;0.83;0.30;;;;;;;11.39;64.30;99061.44;5071070;28;20201;-75
2021/05/22 01:06:33;;;;;;;0.47;0.23;;;;;;;11.35;64.59;99054.31;5070918;28;20679;-74
2021/05/22 01:09:05;;;;;;;0.10;0.10;;;;;;;11.40;65.00;99057.56;5070838;28;20167;-74
2021/05/22 01:11:41;;;;;;;0.20;0.20;;;;;;;11.41;64.29;99052.88;5070992;28;20197;-74
2021/05/22 01:14:32;;;;;;;0.10;0.10;;;;;;;11.28;64.66;99054.91;5070916;28;20209;-74
2021/05/22 01:16:59;;;;;;;0.20;0.20;;;;;;;11.18;64.57;99056.22;5067546;28;20623;-74
2021/05/22 01:20:09;;;;;;;0.20;0.20;;;;;;;11.13;65.23;99055.66;5071033;28;20210;-73
2021/05/22 01:22:51;;;;;;;0.23;0.23;;;;;;;11.07;64.47;99049.66;5066071;28;20648;-74
2021/05/22 01:25:33;;;;;;;0.20;0.20;;;;;;;11.10;64.22;99048.97;5070742;28;20580;-74
2021/05/22 01:28:00;;;;;;;0.30;0.30;;;;;;;11.15;63.78;99065.13;5070724;28;20163;-74
2021/05/22 01:30:26;;;;;;;0.83;0.10;;;;;;;11.15;63.36;99062.38;5070663;28;20231;-73
2021/05/22 01:32:51;;;;;;;0.30;0.30;;;;;;;10.98;63.54;99068.13;5070717;28;20174;-74
2021/05/22 01:35:18;;;;;;;1.40;0.50;;;;;;;10.90;63.68;99063.63;5070779;28;20178;-75
2021/05/22 01:37:44;;;;;;;0.30;0.30;;;;;;;10.90;63.95;99060.91;5070868;28;20206;-73
2021/05/22 01:40:10;;;;;;;2.20;0.20;;;;;;;10.89;64.39;99064.78;5073549;28;20175;-74
2021/05/22 01:42:35;;;;;;;0.60;0.47;;;;;;;10.91;63.82;99067.94;5074766;28;20170;-75
2021/05/22 01:45:08;;;;;;;0.10;0.10;;;;;;;10.81;64.33;99071.16;5074660;28;20178;-74
2021/05/22 01:47:34;;;;;;;2.20;0.43;;;;;;;10.76;64.80;99066.75;5074722;28;20170;-74
2021/05/22 01:50:03;;;;;;;0.30;0.30;;;;;;;10.75;64.87;99069.81;5074566;28;20202;-73
2021/05/22 01:52:32;;;;;;;0.20;0.20;;;;;;;10.67;65.05;99064.13;5074623;28;20261;-73
2021/05/22 01:54:58;;;;;;;0.43;0.30;;;;;;;10.56;65.33;99075.88;5074496;28;20174;-75
2021/05/22 01:57:24;;;;;;;2.00;0.23;;;;;;;10.60;65.49;99077.59;5073050;28;20224;-74
2021/05/22 01:59:49;;;;;;;2.00;0.20;;;;;;;10.58;65.37;99074.44;5074226;28;20183;-73
2021/05/22 02:02:19;;;;;;;0.30;0.30;;;;;;;10.50;65.58;99080.78;5074403;28;20178;-73
2021/05/22 02:04:46;;;;;;;0.13;0.13;;;;;;;10.55;65.78;99077.03;5074405;28;20213;-74
2021/05/22 02:07:17;;;;;;;0.70;0.40;;;;;;;10.51;65.65;99076.13;5074374;28;20300;-74
2021/05/22 02:09:44;;;;;;;0.20;0.20;;;;;;;10.43;66.17;99069.69;5074171;28;20637;-74
2021/05/22 02:12:11;;;;;;;0.00;0.00;;;;;;;10.31;66.11;99075.94;5074267;28;20171;-74
2021/05/22 02:14:37;;;;;;;0.00;0.00;;;;;;;10.33;65.91;99078.31;5074218;28;20256;-74
2021/05/22 02:17:06;;;;;;;0.10;0.10;;;;;;;10.31;66.30;99072.41;5074270;28;20247;-73
2021/05/22 02:19:32;;;;;;;0.67;0.20;;;;;;;10.22;66.59;99071.72;5073987;28;20219;-73
2021/05/22 02:22:05;;;;;;;0.93;0.30;;;;;;;10.16;67.13;99078.53;5074016;28;20190;-73
2021/05/22 02:24:32;;;;;;;0.30;0.10;;;;;;;10.17;67.22;99071.94;5073953;28;20171;-74
2021/05/22 02:27:00;;;;;;;0.10;0.10;;;;;;;10.08;67.54;99072.06;5073882;28;20182;-74
2021/05/22 02:29:27;;;;;;;0.00;0.00;;;;;;;10.14;67.53;99062.50;5073845;28;20712;-72
2021/05/22 02:31:54;;;;;;;0.00;0.00;;;;;;;10.06;67.75;99066.16;5073810;28;20196;-74
2021/05/22 02:34:27;;;;;;;0.10;0.10;;;;;;;10.07;68.07;99062.28;5073792;28;20501;-73
2021/05/22 02:36:54;;;;;;;0.37;0.10;;;;;;;10.00;68.51;99053.88;5073488;28;20205;-74
2021/05/22 02:39:21;;;;;;;0.10;0.10;;;;;;;10.05;68.64;99067.28;5072282;28;20175;-73
2021/05/22 02:41:47;;;;;;;0.00;0.00;;;;;;;10.05;68.92;99070.00;5073752;28;20213;-74
2021/05/22 02:44:15;;;;;;;0.03;0.03;;;;;;;10.03;69.62;99066.84;5073562;28;20206;-73
2021/05/22 02:46:44;;;;;;;0.53;0.53;;;;;;;9.92;69.66;99071.94;5073606;28;20175;-73
2021/05/22 02:49:11;;;;;;;0.10;0.10;;;;;;;9.84;69.95;99081.84;5073121;28;20163;-73
2021/05/22 02:51:38;;;;;;;0.10;0.10;;;;;;;9.84;70.36;99068.19;5073515;28;20261;-74
2021/05/22 02:54:06;;;;;;;0.33;0.17;;;;;;;9.81;70.28;99066.13;5072230;28;20166;-73
2021/05/22 02:56:34;;;;;;;0.10;0.10;;;;;;;9.82;70.42;99069.66;5073386;28;20190;-74
2021/05/22 02:59:01;;;;;;;0.90;0.37;;;;;;;9.70;71.36;99058.75;5073108;28;20218;-74
2021/05/22 03:01:26;;;;;;;0.00;0.00;;;;;;;9.77;70.79;99064.44;5073441;28;20691;-74
2021/05/22 03:03:54;;;;;;;0.00;0.00;;;;;;;9.72;71.38;99056.47;5073342;28;20178;-72
2021/05/22 03:06:20;;;;;;;0.07;0.07;;;;;;;9.74;71.59;99059.66;5073444;28;20254;-74
2021/05/22 03:08:48;;;;;;;0.00;0.00;;;;;;;9.68;72.38;99059.06;5073161;28;20565;-74
2021/05/22 03:11:15;;;;;;;0.47;0.47;;;;;;;9.62;72.34;99057.72;5073114;28;20205;-75
2021/05/22 03:13:42;;;;;;;0.50;0.50;;;;;;;9.64;72.44;99060.09;5073004;28;20211;-73
2021/05/22 03:16:07;;;;;;;0.17;0.13;;;;;;;9.64;72.20;99068.28;5073269;28;20171;-72
2021/05/22 03:18:32;;;;;;;0.07;0.07;;;;;;;9.64;72.88;99069.06;5072837;28;20482;-74
2021/05/22 03:20:58;;;;;;;1.80;0.40;;;;;;;9.60;72.80;99064.63;5072932;28;20194;-73
2021/05/22 03:23:23;;;;;;;0.00;0.00;;;;;;;9.56;73.29;99069.19;5072954;28;20185;-74
2021/05/22 03:25:49;;;;;;;0.40;0.27;;;;;;;9.52;73.27;99061.66;5072887;28;20175;-72
2021/05/22 03:28:14;;;;;;;1.97;1.37;;;;;;;9.51;73.36;99057.34;5072611;28;20181;-74
2021/05/22 03:30:40;;;;;;;1.60;0.20;;;;;;;9.48;74.10;99058.03;5072710;28;20266;-74
2021/05/22 03:33:05;;;;;;;0.33;0.10;;;;;;;9.46;74.18;99057.56;5072669;28;20170;-74
2021/05/22 03:35:30;;;;;;;0.20;0.20;;;;;;;9.43;74.36;99052.81;5072707;28;20174;-73
2021/05/22 03:37:56;;;;;;;0.40;0.20;;;;;;;9.42;73.97;99056.66;5072345;28;20237;-73
2021/05/22 03:40:21;;;;;;;3.03;0.13;;;;;;;9.41;74.56;99055.06;5072685;28;20170;-72
2021/05/22 03:42:46;;;;;;;0.00;0.00;;;;;;;9.43;74.60;99063.69;5071222;28;20212;-72
2021/05/22 03:45:12;;;;;;;0.47;0.17;;;;;;;9.43;74.20;99071.88;5072396;28;20599;-73
2021/05/22 03:47:38;;;;;;;0.40;0.40;;;;;;;9.42;74.15;99064.84;5072323;28;20178;-73
2021/05/22 03:50:04;;;;;;;0.20;0.20;;;;;;;9.41;74.67;99063.25;5072256;28;20175;-73
2021/05/22 03:52:29;;;;;;;0.77;0.30;;;;;;;9.39;74.49;99053.78;5072391;28;20175;-73
2021/05/22 03:54:54;;;;;;;0.10;0.10;;;;;;;9.40;74.85;99060.84;5072329;28;20177;-74
2021/05/22 03:57:20;;;;;;;0.23;0.20;;;;;;;9.23;75.01;99051.72;5072089;28;20281;-73
2021/05/22 03:59:45;;;;;;;1.70;0.40;;;;;;;9.30;75.54;99061.28;5071891;28;20182;-74
2021/05/22 04:02:10;;;;;;;0.57;0.40;;;;;;;9.29;76.11;99059.69;5071643;28;20249;-73
2021/05/22 04:04:36;;;;;;;0.17;0.17;;;;;;;9.32;75.58;99059.81;5072067;28;20170;-74
2021/05/22 04:07:01;;;;;;;0.10;0.10;;;;;;;9.37;75.55;99066.97;5072007;28;20178;-73
2021/05/22 04:09:27;;;;;;;0.10;0.10;;;;;;;9.38;75.37;99065.84;5071825;28;20209;-74
2021/05/22 04:11:52;;;;;;;1.10;0.37;;;;;;;9.36;75.42;99066.16;5071886;28;20185;-74
2021/05/22 04:14:17;;;;;;;0.23;0.23;;;;;;;9.27;75.56;99057.31;5070655;28;20219;-74
2021/05/22 04:16:43;;;;;;;1.80;0.10;;;;;;;9.33;75.79;99058.69;5071819;28;20190;-73
2021/05/22 04:19:08;;;;;;;0.13;0.10;;;;;;;9.28;76.07;99053.44;5071718;28;20639;-73
2021/05/22 04:21:33;;;;;;;1.03;0.20;;;;;;;9.31;76.02;99066.41;5071758;28;20261;-74
2021/05/22 04:23:59;;;;;;;0.20;0.20;;;;;;;9.30;76.11;99056.63;5071765;28;20265;-74
2021/05/22 04:26:24;;;;;;;2.10;0.20;;;;;;;9.32;75.87;99059.81;5071631;28;20177;-73
2021/05/22 04:28:49;;;;;;;0.20;0.20;;;;;;;9.27;76.55;99061.97;5071528;28;20185;-74
2021/05/22 04:31:15;;;;;;;1.40;1.30;;;;;;;9.31;76.37;99063.66;5071641;28;20257;-73
2021/05/22 04:33:40;;;;;;;0.63;0.33;;;;;;;9.35;76.58;99070.03;5071876;28;20540;-72
2021/05/22 04:36:06;;;;;;;0.20;0.20;;;;;;;9.47;76.10;99072.00;5071702;28;20588;-72
2021/05/22 04:38:32;;;;;;;0.10;0.10;;;;;;;9.51;76.24;99079.16;5073179;28;20167;-73
2021/05/22 04:40:57;;;;;;;0.37;0.20;;;;;;;9.59;76.07;99068.50;5071997;28;20181;-73
2021/05/22 04:43:23;;;;;;;0.87;0.23;;;;;;;9.63;75.72;99066.69;5071471;28;20178;-73
2021/05/22 04:45:48;;;;;;;0.47;0.30;;;;;;;9.71;76.40;99071.25;5071323;28;20189;-73
2021/05/22 04:48:13;;;;;;;0.00;0.00;;;;;;;9.79;76.21;99073.06;5071186;28;20648;-72
2021/05/22 04:50:39;;;;;;;3.60;0.30;;;;;;;9.81;75.16;99085.22;5071378;28;20171;-72
2021/05/22 04:53:05;;;;;;;0.00;0.00;;;;;;;9.84;75.83;99067.41;5069975;28;20713;-73
2021/05/22 04:55:30;;;;;;;0.90;0.30;;;;;;;9.84;76.21;99061.94;5071091;28;20198;-74
2021/05/22 04:57:55;;;;;;;0.77;0.20;;;;;;;9.80;76.41;99067.25;5071095;28;20202;-73
2021/05/22 05:00:21;;;;;;;0.17;0.17;;;;;;;9.76;76.28;99068.28;5070974;28;20182;-73
2021/05/22 05:02:47;;;;;;;0.40;0.40;;;;;;;9.77;76.28;99062.50;5071137;28;20174;-74
2021/05/22 05:05:12;;;;;;;0.10;0.10;;;;;;;9.90;76.62;99070.69;5071014;28;20608;-74
2021/05/22 05:07:41;;;;;;;0.60;0.20;;;;;;;10.04;75.50;99068.41;5070956;28;20637;-73
2021/05/22 05:10:11;;;;;;;0.30;0.10;;;;;;;10.07;75.66;99073.97;5070895;28;20179;-74
2021/05/22 05:12:36;;;;;;;0.00;0.00;;;;;;;10.04;75.16;99065.69;5070910;28;20174;-73
2021/05/22 05:15:04;;;;;;;1.07;0.23;;;;;;;10.17;75.13;99063.75;5070951;28;20189;-73
2021/05/22 05:17:29;;;;;;;0.33;0.20;;;;;;;10.22;75.50;99075.25;5070798;28;20210;-73
2021/05/22 05:19:57;;;;;;;0.07;0.07;;;;;;;10.19;74.40;99072.41;5070688;28;20656;-73
2021/05/22 05:22:23;;;;;;;3.60;0.93;;;;;;;10.25;74.41;99080.03;5070731;28;20170;-74
2021/05/22 05:24:48;;;;;;;0.00;0.00;;;;;;;10.28;73.99;99073.91;5070700;28;20580;-74
2021/05/22 05:27:13;;;;;;;1.13;1.13;;;;;;;10.29;74.16;99071.97;5069412;28;20244;-73
2021/05/22 05:29:40;;;;;;;0.43;0.43;;;;;;;10.32;73.48;99074.00;5070998;28;20167;-73
2021/05/22 05:32:10;;;;;;;0.00;0.00;;;;;;;10.28;73.72;99060.25;5070692;28;20171;-74
2021/05/22 05:34:35;;;;;;;0.10;0.10;;;;;;;10.35;73.35;99068.66;5070745;28;20603;-74
2021/05/22 05:37:01;;;;;;;0.33;0.30;;;;;;;10.48;73.71;99066.69;5070424;28;20226;-73
2021/05/22 05:39:26;;;;;;;0.13;0.10;;;;;;;10.55;73.34;99063.38;5070706;28;20182;-73
2021/05/22 05:41:52;;;;;;;0.20;0.20;;;;;;;10.64;72.75;99070.31;5070595;28;20181;-74
2021/05/22 05:44:17;;;;;;;17.60;1.10;;;;;;;10.66;72.74;99061.75;5070587;28;20200;-74
2021/05/22 05:46:42;;;;;;;0.10;0.10;;;;;;;10.62;72.04;99053.47;5070614;28;20179;-74
2021/05/22 05:49:08;;;;;;;0.20;0.13;;;;;;;10.73;72.58;99051.06;5070468;28;20186;-72
2021/05/22 05:51:34;;;;;;;30.20;0.63;;;;;;;10.70;71.20;99068.94;5069556;28;20266;-73
2021/05/22 05:54:00;;;;;;;0.00;0.00;;;;;;;10.78;70.85;99059.00;5070792;28;20171;-73
2021/05/22 05:56:25;;;;;;;0.00;0.00;;;;;;;10.87;71.18;99067.06;5070260;28;20245;-73
2021/05/22 05:58:50;;;;;;;0.40;0.10;;;;;;;10.96;70.95;99070.44;5070330;28;20468;-75
2021/05/22 06:01:16;;;;;;;0.97;0.20;;;;;;;11.07;70.24;99073.47;5070797;28;20619;-73
2021/05/22 06:03:43;;;;;;;0.50;0.00;;;;;;;11.18;69.31;99078.09;5070437;28;20254;-75
2021/05/22 06:06:08;;;;;;;0.77;0.20;;;;;;;11.25;68.28;99074.75;5070394;28;20174;-75
2021/05/22 06:08:33;;;;;;;0.33;0.33;;;;;;;11.29;68.17;99061.97;5070144;28;20167;-74
2021/05/22 06:11:01;;;;;;;0.00;0.00;;;;;;;11.21;68.43;99068.38;5070349;28;20533;-73
2021/05/22 06:13:29;;;;;;;0.40;0.40;;;;;;;11.27;67.52;99067.78;5070582;28;20680;-75
2021/05/22 06:16:02;;;;;;;0.43;0.43;;;;;;;11.39;68.20;99058.72;5070301;28;20179;-76
2021/05/22 06:18:32;;;;;;;0.43;0.40;;;;;;;11.45;67.23;99062.81;5070625;28;20562;-75
2021/05/22 06:20:58;;;;;;;10.00;0.90;;;;;;;11.45;67.57;99067.47;5070344;28;20170;-75
2021/05/22 06:23:23;;;;;;;0.20;0.20;;;;;;;11.46;67.30;99056.19;5070152;28;20171;-75
2021/05/22 06:25:49;;;;;;;0.10;0.10;;;;;;;11.56;66.67;99050.16;5074243;28;20751;-74
2021/05/22 06:28:15;;;;;;;0.10;0.10;;;;;;;11.70;65.89;99054.41;5073797;28;20173;-74
2021/05/22 06:30:40;;;;;;;0.10;0.10;;;;;;;11.70;65.47;99049.72;5074194;28;20468;-74
2021/05/22 06:33:05;;;;;;;0.60;0.60;;;;;;;11.74;65.57;99058.06;5072524;28;20185;-74
2021/05/22 06:35:31;;;;;;;2.43;0.10;;;;;;;11.81;65.15;99061.78;5074005;28;20530;-75
2021/05/22 06:37:56;;;;;;;0.00;0.00;;;;;;;11.99;64.51;99050.47;5074008;28;20201;-73
2021/05/22 06:40:23;;;;;;;0.20;0.20;;;;;;;12.13;64.82;99067.22;5074267;28;20198;-74
2021/05/22 06:42:48;;;;;;;0.00;0.00;;;;;;;12.16;63.47;99050.09;5074138;28;20163;-74
2021/05/22 06:45:16;;;;;;;0.30;0.30;;;;;;;12.24;63.54;99062.78;5073973;28;20178;-74
2021/05/22 06:47:41;;;;;;;10.83;0.43;;;;;;;12.25;62.93;99063.59;5074024;28;20169;-73
2021/05/22 06:50:08;;;;;;;0.30;0.30;;;;;;;12.32;61.91;99066.50;5073714;28;20183;-73
2021/05/22 06:52:33;;;;;;;5.03;0.47;;;;;;;12.30;61.66;99047.69;5073583;28;20171;-74
2021/05/22 06:54:59;;;;;;;1.43;0.30;;;;;;;12.15;63.57;99064.91;5073813;28;20261;-73
2021/05/22 06:57:24;;;;;;;0.30;0.20;;;;;;;12.30;63.98;99064.13;5073647;28;20277;-73
2021/05/22 06:59:52;;;;;;;0.63;0.20;;;;;;;12.47;62.67;99060.19;5073907;28;20231;-74
2021/05/22 07:02:17;;;;;;;1.10;0.20;;;;;;;12.51;63.11;99059.13;5073719;28;20178;-73
2021/05/22 07:04:43;;;;;;;0.60;0.33;;;;;;;12.62;62.42;99050.34;5073748;28;20182;-72
2021/05/22 07:07:08;;;;;;;0.10;0.10;;;;;;;12.78;62.87;99060.09;5073347;28;20198;-72
2021/05/22 07:09:33;;;;;;;0.00;0.00;;;;;;;12.52;60.53;99059.91;5073142;28;20266;-74
2021/05/22 07:11:59;;;;;;;0.30;0.20;;;;;;;12.35;60.73;99052.88;5073491;28;20178;-74
2021/05/22 07:14:25;;;;;;;1.90;0.60;;;;;;;12.21;61.96;99058.84;5073661;28;20173;-73
2021/05/22 07:16:51;;;;;;;0.70;0.30;;;;;;;12.24;63.80;99062.78;5072098;28;20195;-73
2021/05/22 07:19:16;;;;;;;0.50;0.50;;;;;;;12.09;62.79;99058.13;5073636;28;20181;-73
2021/05/22 07:21:42;;;;;;;1.67;0.30;;;;;;;12.07;62.61;99052.22;5073388;28;20186;-74
2021/05/22 07:24:08;;;;;;;0.23;0.23;;;;;;;12.03;62.64;99070.53;5073214;28;20182;-73
2021/05/22 07:26:33;;;;;;;0.20;0.10;;;;;;;11.89;63.59;99068.22;5073122;28;20281;-74
2021/05/22 07:28:59;;;;;;;0.60;0.60;;;;;;;11.83;63.40;99069.63;5072720;28;20178;-74
2021/05/22 07:31:25;;;;;;;1.47;0.23;;;;;;;11.90;63.95;99078.81;5073253;28;20236;-73
2021/05/22 07:33:51;;;;;;;0.00;0.00;;;;;;;11.91;62.06;99074.94;5073251;28;20647;-73
2021/05/22 07:36:18;;;;;;;0.63;0.20;;;;;;;11.97;63.61;99058.25;5071866;28;20171;-75
2021/05/22 07:38:43;;;;;;;1.00;0.57;;;;;;;12.05;62.88;99066.28;5072782;28;20197;-74
2021/05/22 07:41:10;;;;;;;0.00;0.00;;;;;;;12.03;62.42;99049.41;5073436;28;20692;-75
2021/05/22 07:43:35;;;;;;;0.50;0.10;;;;;;;12.00;63.06;99068.47;5072898;28;20204;-75
2021/05/22 07:46:01;;;;;;;0.30;0.20;;;;;;;11.99;63.49;99061.41;5072737;28;20253;-75
2021/05/22 07:48:26;;;;;;;0.23;0.20;;;;;;;12.10;63.96;99060.53;5072477;28;20186;-76
2021/05/22 07:50:55;;;;;;;0.23;0.20;;;;;;;12.04;62.06;99059.22;5072853;28;20221;-75
2021/05/22 07:53:20;;;;;;;1.70;1.60;;;;;;;12.06;62.96;99050.66;5071453;28;20482;-75
2021/05/22 07:55:46;;;;;;;0.90;0.90;;;;;;;12.14;63.39;99055.13;5072764;28;20171;-74
2021/05/22 07:58:12;;;;;;;0.03;0.03;;;;;;;12.24;61.55;99064.75;5072692;28;20609;-75
2021/05/22 08:00:37;;;;;;;6.03;0.20;;;;;;;12.25;61.29;99055.38;5072477;28;20182;-75
2021/05/22 08:03:03;;;;;;;14.90;1.17;;;;;;;12.14;60.87;99055.13;5072431;28;20170;-75
2021/05/22 08:05:29;;;;;;;1.00;0.63;;;;;;;12.19;61.71;99041.97;5070439;28;20314;-75
2021/05/22 08:07:54;;;;;;;0.83;0.30;;;;;;;12.28;61.09;99049.97;5071911;28;20282;-75
2021/05/22 08:10:20;;;;;;;0.40;0.23;;;;;;;12.51;62.55;99041.88;5072446;28;20282;-76
2021/05/22 08:12:45;;;;;;;0.20;0.20;;;;;;;12.73;61.66;99038.44;5072355;28;20596;-75
2021/05/22 08:15:11;;;;;;;0.10;0.10;;;;;;;12.93;62.39;99041.19;5072415;28;20697;-75
2021/05/22 08:17:37;;;;;;;3.20;0.10;;;;;;;13.22;61.95;99040.59;5071933;28;20203;-75
2021/05/22 08:20:04;;;;;;;0.70;0.50;;;;;;;13.43;58.94;99037.44;5072240;28;20600;-75
2021/05/22 08:22:29;;;;;;;0.10;0.10;;;;;;;13.58;58.73;99039.28;5071941;28;20171;-74
2021/05/22 08:24:55;;;;;;;0.00;0.00;;;;;;;13.34;58.44;99037.72;5070639;28;20193;-75
2021/05/22 08:27:21;;;;;;;0.10;0.10;;;;;;;13.34;58.85;99040.44;5071805;28;20231;-77
2021/05/22 08:29:46;;;;;;;2.13;0.60;;;;;;;13.12;58.42;99035.69;5071879;28;20170;-76
2021/05/22 08:32:12;;;;;;;0.27;0.27;;;;;;;13.09;59.83;99037.19;5072344;28;20185;-75
2021/05/22 08:34:39;;;;;;;0.60;0.60;;;;;;;13.23;60.11;99053.16;5071055;28;20257;-76
2021/05/22 08:37:06;;;;;;;0.00;0.00;;;;;;;13.09;60.20;99044.63;5071844;28;20201;-75
2021/05/22 08:39:31;;;;;;;0.93;0.50;;;;;;;13.10;59.94;99036.03;5071620;28;20634;-75
2021/05/22 08:41:57;;;;;;;2.07;0.57;;;;;;;13.06;59.61;99031.66;5071698;28;20228;-76
2021/05/22 08:44:23;;;;;;;1.90;1.13;;;;;;;12.85;59.83;99050.41;5071669;28;20622;-76
2021/05/22 08:46:48;;;;;;;0.00;0.00;;;;;;;12.62;60.48;99050.34;5071407;28;20198;-74
2021/05/22 08:49:14;;;;;;;0.20;0.13;;;;;;;12.70;61.13;99032.88;5070066;28;20175;-76
2021/05/22 08:51:42;;;;;;;0.07;0.07;;;;;;;12.80;60.00;99040.53;5071666;28;20175;-76
2021/05/22 08:54:08;;;;;;;0.00;0.00;;;;;;;12.73;60.26;99057.63;5071831;28;20597;-74
2021/05/22 08:56:33;;;;;;;13.13;1.13;;;;;;;12.52;63.13;99049.75;5071472;28;20226;-76
2021/05/22 08:58:58;;;;;;;0.00;0.00;;;;;;;12.24;65.27;99060.06;5071303;28;20190;-75
2021/05/22 09:01:24;;;;;;;0.33;0.27;;;;;;;11.98;66.78;99059.81;5071872;28;20170;-75
2021/05/22 09:03:50;;;;;;;0.20;0.20;;;;;;;11.86;69.64;99077.94;5071482;28;20177;-76
2021/05/22 09:06:15;;;;;;;0.07;0.07;;;;;;;11.55;71.71;99083.34;5071482;28;20177;-75
2021/05/22 09:08:41;;;;;;;0.67;0.67;;;;;;;11.37;71.41;99085.63;5071135;28;20170;-76
2021/05/22 09:11:07;;;;;;;0.00;0.00;;;;;;;11.28;72.37;99096.72;5071214;28;20177;-75
2021/05/22 09:13:34;;;;;;;20.07;1.13;;;;;;;11.28;75.13;99104.09;5071227;28;20532;-76
2021/05/22 09:16:05;;;;;;;0.00;0.00;;;;;;;11.09;73.96;99095.78;5071283;28;20178;-76
2021/05/22 09:18:39;;;;;;;0.00;0.00;;;;;;;11.01;74.50;99105.72;5071072;28;20220;-77
2021/05/22 09:21:08;;;;;;;1.10;1.03;;;;;;;10.93;76.60;99125.78;5071164;28;20182;-77
2021/05/22 09:23:36;;;;;;;0.00;0.00;;;;;;;10.78;75.76;99119.09;5071250;28;20197;-76
2021/05/22 09:26:04;;;;;;;0.00;0.00;;;;;;;10.77;75.73;99116.72;5069994;28;20181;-77
2021/05/22 09:28:33;;;;;;;0.40;0.40;;;;;;;10.81;74.90;99123.88;5070950;28;20597;-76
2021/05/22 09:30:59;;;;;;;0.00;0.00;;;;;;;10.96;73.03;99103.22;5070922;28;20638;-76
2021/05/22 09:33:30;;;;;;;0.10;0.10;;;;;;;11.13;73.29;99110.31;5071091;28;20179;-73
2021/05/22 09:35:58;;;;;;;3.77;0.43;;;;;;;11.36;74.43;99100.44;5070912;28;20171;-75
2021/05/22 09:38:37;;;;;;;0.30;0.20;;;;;;;11.53;74.46;99102.84;5070568;28;20213;-74
2021/05/22 09:41:15;;;;;;;0.00;0.00;;;;;;;11.76;72.37;99100.34;5070959;28;20178;-74
2021/05/22 09:43:41;;;;;;;0.10;0.10;;;;;;;12.04;74.82;99100.28;5070989;28;20178;-75
2021/05/22 09:46:10;;;;;;;3.80;0.73;;;;;;;12.31;70.86;99114.22;5070904;28;20179;-75
2021/05/22 09:48:36;;;;;;;0.03;0.03;;;;;;;12.41;71.90;99111.69;5070777;28;20178;-74
2021/05/22 09:51:03;;;;;;;0.00;0.00;;;;;;;12.42;67.53;99101.53;5070875;28;20186;-73
2021/05/22 09:53:36;;;;;;;0.30;0.30;;;;;;;12.32;67.99;99102.09;5070737;28;20694;-74
2021/05/22 09:56:18;;;;;;;0.00;0.00;;;;;;;12.30;67.98;99113.44;5070719;28;20210;-74
2021/05/22 09:59:09;;;;;;;0.00;0.00;;;;;;;12.19;68.57;99104.16;5070914;28;20198;-74
2021/05/22 10:01:42;;;;;;;0.00;0.00;;;;;;;12.21;71.76;99118.28;5073331;28;20197;-74
2021/05/22 10:04:19;;;;;;;0.00;0.00;;;;;;;12.23;68.96;99104.22;5054993;28;20533;-73
2021/05/22 10:06:44;;;;;;;0.00;0.00;;;;;;;12.15;70.50;99111.47;5054685;28;20201;-73
2021/05/22 10:09:13;;;;;;;0.00;0.00;;;;;;;12.15;70.71;99117.78;5054463;28;20179;-73
2021/05/22 10:12:01;;;;;;;0.00;0.00;;;;;;;12.09;71.84;99118.38;5054649;28;20180;-73
2021/05/22 10:14:31;;;;;;;0.53;0.33;;;;;;;11.95;71.58;99109.81;5054502;28;20163;-73
2021/05/22 10:16:57;;;;;;;0.17;0.17;;;;;;;11.81;72.29;99110.25;5054307;28;20234;-73
2021/05/22 10:19:25;;;;;;;0.53;0.53;;;;;;;11.86;73.61;99121.75;5054242;28;20210;-73
2021/05/22 10:21:50;;;;;;;7.83;0.27;;;;;;;11.82;73.16;99114.56;5054246;28;20171;-73
2021/05/22 10:24:16;;;;;;;0.20;0.20;;;;;;;11.77;72.97;99112.84;5054176;28;20173;-73
2021/05/22 10:26:42;;;;;;;0.10;0.10;;;;;;;11.59;72.17;99120.63;5053960;28;20172;-73
2021/05/22 10:29:08;;;;;;;0.30;0.10;;;;;;;11.60;72.89;99130.41;5052745;28;20271;-73
2021/05/22 10:31:41;;;;;;;0.20;0.20;;;;;;;11.58;70.22;99132.69;5054000;28;20661;-74
2021/05/22 10:34:12;;;;;;;0.00;0.00;;;;;;;11.57;71.62;99133.84;5054078;28;20178;-73
2021/05/22 10:36:46;;;;;;;0.10;0.10;;;;;;;11.57;72.62;99138.50;5059928;28;20202;-74
2021/05/22 10:39:33;;;;;;;0.00;0.00;;;;;;;11.55;74.83;99149.00;5064391;28;20182;-75
2021/05/22 10:42:00;;;;;;;0.00;0.00;;;;;;;11.43;75.26;99149.88;5054097;28;20175;-73
2021/05/22 10:44:27;;;;;;;0.00;0.00;;;;;;;11.32;77.00;99154.25;5054295;28;20183;-73
2021/05/22 10:47:03;;;;;;;0.10;0.10;;;;;;;11.11;78.45;99164.56;5054115;28;20266;-73
2021/05/22 10:49:46;;;;;;;1.40;0.50;;;;;;;10.92;79.84;99171.44;5052980;28;20254;-73
2021/05/22 10:52:27;;;;;;;0.17;0.07;;;;;;;10.86;82.80;99180.22;5053361;28;20651;-73
2021/05/22 10:55:10;;;;;;;2.33;0.13;;;;;;;10.72;82.06;99175.13;5054085;28;20175;-73
2021/05/22 10:57:41;;;;;;;0.20;0.13;;;;;;;10.80;83.65;99176.91;5053419;28;20623;-73
2021/05/22 11:00:16;;;;;;;0.20;0.20;;;;;;;10.66;84.24;99174.53;5053575;28;20290;-75
2021/05/22 11:02:46;;;;;;;0.00;0.00;;;;;;;10.65;84.80;99166.69;5052945;28;20249;-74
2021/05/22 11:05:22;;;;;;;0.50;0.23;;;;;;;10.66;85.32;99169.06;5053144;28;20226;-76
2021/05/22 11:07:47;;;;;;;0.00;0.00;;;;;;;10.79;85.65;99167.13;5052679;28;20232;-76
2021/05/22 11:10:39;;;;;;;0.10;0.10;;;;;;;10.94;84.41;99171.09;5052717;28;20175;-75
2021/05/22 11:13:06;;;;;;;0.00;0.00;;;;;;;11.00;84.58;99180.66;5052802;28;20176;-76
2021/05/22 11:15:52;;;;;;;0.10;0.10;;;;;;;11.03;84.67;99178.03;5052712;28;20232;-76
2021/05/22 11:18:20;;;;;;;0.10;0.10;;;;;;;11.12;84.82;99179.81;5052552;28;20278;-76
2021/05/22 11:21:25;;;;;;;0.10;0.10;;;;;;;11.15;83.92;99179.94;5052582;28;20176;-76
2021/05/22 11:23:59;;;;;;;0.20;0.20;;;;;;;11.16;85.38;99184.25;5030115;28;20537;-75
2021/05/22 11:26:42;;;;;;;1.20;0.40;;;;;;;11.24;85.55;99180.56;5029871;28;20293;-75
2021/05/22 11:29:08;;;;;;;3.17;0.27;;;;;;;11.35;86.14;99193.75;5051259;28;20201;-75
2021/05/22 11:31:34;;;;;;;0.30;0.30;;;;;;;11.22;83.81;99182.84;5073255;28;20175;-76
2021/05/22 11:34:26;;;;;;;0.50;0.50;;;;;;;11.26;85.58;99194.69;5072551;28;20210;-76
2021/05/22 11:37:07;;;;;;;0.13;0.10;;;;;;;11.33;85.38;99199.59;5070281;28;20217;-75